Time;durP1;ratioP1;P1;durP2;ratioP2;P2;SDS_P1;SDS_P2;PMS_P1;PMS_P2;Temp;Humidity;BMP_temperature;BMP_pressure;BME280_temperature;BME280_humidity;BME280_pressure;Samples;Min_cycle;Max_cycle;Signal;HPM_P1;HPM_P2
2022/01/31 00:01:58;;;;;;;7.07;3.50;;;;;;;4.54;88.47;99216.00;5071982;28;20283;-63
2022/01/31 00:04:25;;;;;;;4.10;3.40;;;;;;;4.50;88.35;99211.78;5070146;28;20208;-63
2022/01/31 00:06:53;;;;;;;4.27;2.90;;;;;;;4.52;87.65;99205.03;5070937;28;20200;-63
2022/01/31 00:09:23;;;;;;;5.03;3.50;;;;;;;4.53;87.04;99206.69;5071325;28;20300;-63
2022/01/31 00:11:57;;;;;;;4.73;3.43;;;;;;;4.59;86.00;99211.69;5071889;28;20650;-63
2022/01/31 00:14:37;;;;;;;10.90;3.87;;;;;;;4.60;85.74;99209.16;5070217;28;20220;-63
2022/01/31 00:17:07;;;;;;;8.60;3.30;;;;;;;4.64;85.32;99210.81;5071264;28;20212;-63
2022/01/31 00:19:35;;;;;;;4.00;3.00;;;;;;;4.47;85.19;99181.34;5070335;28;20291;-63
2022/01/31 00:22:03;;;;;;;11.13;2.83;;;;;;;4.60;85.15;99208.31;5071629;28;20668;-63
2022/01/31 00:24:30;;;;;;;10.43;3.40;;;;;;;4.51;85.66;99203.31;5069403;28;20291;-63
2022/01/31 00:26:57;;;;;;;13.27;4.10;;;;;;;4.41;86.03;99201.72;5071740;28;20745;-63
2022/01/31 00:29:24;;;;;;;12.00;2.60;;;;;;;4.37;86.17;99189.91;5070391;28;20292;-63
2022/01/31 00:31:51;;;;;;;8.30;3.37;;;;;;;4.35;85.46;99181.47;5068043;28;20200;-63
2022/01/31 00:34:19;;;;;;;10.50;2.80;;;;;;;4.48;84.69;99188.13;5069165;28;20290;-63
2022/01/31 00:36:46;;;;;;;17.67;3.27;;;;;;;4.64;83.27;99174.44;5067836;28;20302;-63
2022/01/31 00:39:13;;;;;;;3.60;2.90;;;;;;;4.66;83.06;99172.72;5068794;28;20192;-63
2022/01/31 00:41:40;;;;;;;11.33;3.40;;;;;;;4.72;82.75;99186.19;5066426;28;20221;-63
2022/01/31 00:44:21;;;;;;;11.03;2.80;;;;;;;4.70;82.79;99174.38;5065665;28;20799;-63
2022/01/31 00:46:53;;;;;;;10.40;2.83;;;;;;;4.68;82.50;99158.31;5065276;28;20279;-64
2022/01/31 00:49:36;;;;;;;8.63;3.07;;;;;;;4.68;82.67;99155.78;5069705;28;20659;-63
2022/01/31 00:52:04;;;;;;;6.87;3.10;;;;;;;4.65;82.52;99138.03;5069769;28;20687;-63
2022/01/31 00:54:31;;;;;;;14.33;3.17;;;;;;;4.69;82.77;99152.38;5069583;28;20624;-63
2022/01/31 00:56:58;;;;;;;3.53;2.70;;;;;;;4.63;82.98;99143.13;5069245;28;20227;-63
2022/01/31 00:59:25;;;;;;;9.00;4.03;;;;;;;4.62;82.88;99143.16;5067772;28;20743;-63
2022/01/31 01:01:52;;;;;;;3.67;3.37;;;;;;;4.61;82.97;99138.94;5070721;28;20211;-63
2022/01/31 01:04:19;;;;;;;4.03;2.90;;;;;;;4.60;83.39;99138.09;5069535;28;20767;-63
2022/01/31 01:06:47;;;;;;;12.63;2.77;;;;;;;4.66;82.75;99140.56;5071112;28;20283;-63
2022/01/31 01:09:14;;;;;;;13.40;4.00;;;;;;;4.67;82.54;99132.09;5070334;28;20334;-63
2022/01/31 01:11:41;;;;;;;12.83;3.77;;;;;;;4.75;82.17;99126.91;5071185;28;20295;-63
2022/01/31 01:14:09;;;;;;;5.87;3.23;;;;;;;4.84;81.93;99131.91;5070482;28;20240;-63
2022/01/31 01:16:36;;;;;;;10.77;2.83;;;;;;;4.88;81.38;99125.91;5070529;28;20600;-63
2022/01/31 01:19:03;;;;;;;9.73;3.37;;;;;;;4.86;81.02;99129.31;5069296;28;20211;-63
2022/01/31 01:21:30;;;;;;;20.43;3.60;;;;;;;4.83;80.94;99140.38;5070522;28;20612;-63
2022/01/31 01:23:59;;;;;;;11.73;5.33;;;;;;;4.84;79.99;99131.91;5070711;28;20279;-64
2022/01/31 01:26:26;;;;;;;7.13;3.20;;;;;;;4.91;79.19;99130.13;5068441;28;20669;-63
2022/01/31 01:28:53;;;;;;;11.00;2.67;;;;;;;4.89;77.98;99125.06;5067965;28;20291;-63
2022/01/31 01:31:19;;;;;;;13.80;3.00;;;;;;;4.97;77.29;99127.53;5070817;28;20269;-63
2022/01/31 01:33:46;;;;;;;11.33;3.23;;;;;;;4.98;77.04;99140.19;5070976;28;20200;-63
2022/01/31 01:36:13;;;;;;;5.23;3.00;;;;;;;5.00;76.07;99138.47;5069754;28;20290;-63
2022/01/31 01:38:40;;;;;;;10.10;3.10;;;;;;;5.05;75.24;99146.03;5070569;28;20203;-63
2022/01/31 01:41:09;;;;;;;15.87;3.17;;;;;;;5.04;74.59;99136.75;5069788;28;20282;-64
2022/01/31 01:43:38;;;;;;;7.60;4.80;;;;;;;5.05;74.00;99139.25;5068959;28;20286;-63
2022/01/31 01:46:05;;;;;;;17.97;4.00;;;;;;;5.10;73.27;99145.13;5070053;28;20675;-63
2022/01/31 01:48:32;;;;;;;7.03;3.43;;;;;;;5.16;72.46;99155.22;5069192;28;20691;-63
2022/01/31 01:51:00;;;;;;;3.83;3.47;;;;;;;5.17;71.71;99151.00;5069740;28;20656;-63
2022/01/31 01:53:27;;;;;;;15.50;3.47;;;;;;;5.18;71.29;99162.81;5068743;28;20192;-63
2022/01/31 01:55:54;;;;;;;11.37;3.40;;;;;;;5.20;71.47;99168.72;5070419;28;20231;-63
2022/01/31 01:58:24;;;;;;;3.10;2.20;;;;;;;5.23;69.93;99166.97;5068967;28;20211;-63
2022/01/31 02:00:59;;;;;;;12.57;3.23;;;;;;;5.26;69.79;99172.03;5069437;28;20670;-63
2022/01/31 02:03:28;;;;;;;5.00;2.47;;;;;;;5.28;69.47;99170.31;5069403;28;20265;-63
2022/01/31 02:05:56;;;;;;;16.77;2.60;;;;;;;5.21;68.72;99137.34;5069699;28;20223;-63
2022/01/31 02:08:23;;;;;;;7.70;2.47;;;;;;;5.35;68.54;99165.13;5069071;28;20208;-63
2022/01/31 02:10:51;;;;;;;9.00;2.70;;;;;;;5.42;68.69;99164.22;5070019;28;20640;-63
2022/01/31 02:13:18;;;;;;;2.83;2.23;;;;;;;5.40;68.27;99158.28;5069044;28;20192;-63
2022/01/31 02:15:49;;;;;;;13.27;2.63;;;;;;;5.42;68.04;99159.97;5069410;28;20287;-64
2022/01/31 02:18:16;;;;;;;4.80;2.43;;;;;;;5.43;67.64;99158.28;5069258;28;20192;-63
2022/01/31 02:20:45;;;;;;;3.10;2.30;;;;;;;5.39;68.02;99164.25;5069729;28;20207;-63
2022/01/31 02:23:13;;;;;;;3.77;3.07;;;;;;;5.27;67.67;99143.22;5068886;28;20291;-63
2022/01/31 02:25:56;;;;;;;8.63;2.87;;;;;;;5.35;67.88;99165.13;5069558;28;20279;-63
2022/01/31 02:28:26;;;;;;;3.30;2.47;;;;;;;5.37;67.70;99163.41;5069011;28;20772;-63
2022/01/31 02:30:54;;;;;;;19.10;3.03;;;;;;;5.35;67.93;99175.31;5069321;28;20282;-63
2022/01/31 02:33:21;;;;;;;13.00;3.60;;;;;;;5.35;67.30;99165.13;5068928;28;20283;-63
2022/01/31 02:35:50;;;;;;;7.40;2.27;;;;;;;5.28;68.19;99164.38;5069036;28;20188;-63
2022/01/31 02:38:17;;;;;;;8.90;2.33;;;;;;;5.30;67.29;99168.56;5068697;28;20192;-64
2022/01/31 02:40:45;;;;;;;5.63;3.37;;;;;;;5.30;67.13;99162.66;5069339;28;20739;-63
2022/01/31 02:43:13;;;;;;;5.10;2.50;;;;;;;5.30;67.25;99158.41;5068492;28;20200;-63
2022/01/31 02:45:40;;;;;;;4.30;2.47;;;;;;;5.24;67.89;99158.50;5066401;28;20703;-64
2022/01/31 02:48:07;;;;;;;2.93;2.10;;;;;;;5.18;68.31;99163.66;5066481;28;20196;-63
2022/01/31 02:50:34;;;;;;;7.60;2.73;;;;;;;5.07;68.85;99173.09;5067370;28;20642;-63
2022/01/31 02:53:12;;;;;;;3.97;2.30;;;;;;;5.00;68.94;99170.66;5067161;28;20196;-63
2022/01/31 02:55:40;;;;;;;12.23;2.60;;;;;;;4.96;69.09;99162.22;5064716;28;20204;-63
2022/01/31 02:58:07;;;;;;;5.03;2.50;;;;;;;5.00;69.25;99184.22;5063176;28;20215;-63
2022/01/31 03:00:34;;;;;;;6.50;2.10;;;;;;;4.95;69.69;99191.03;5066545;28;20234;-64
2022/01/31 03:03:01;;;;;;;10.90;1.97;;;;;;;4.94;69.70;99184.28;5068968;28;20274;-63
2022/01/31 03:05:28;;;;;;;11.97;3.00;;;;;;;4.97;68.94;99189.31;5066884;28;20199;-63
2022/01/31 03:07:55;;;;;;;12.20;2.57;;;;;;;5.03;69.06;99193.50;5067057;28;20290;-63
2022/01/31 03:10:24;;;;;;;3.47;2.77;;;;;;;5.05;69.33;99200.22;5066965;28;20208;-63
2022/01/31 03:12:51;;;;;;;2.53;1.70;;;;;;;5.03;69.29;99189.25;5066995;28;20200;-63
2022/01/31 03:15:19;;;;;;;1.90;1.80;;;;;;;5.04;69.25;99173.13;5066137;28;20200;-63
2022/01/31 03:17:48;;;;;;;2.47;2.37;;;;;;;4.99;69.57;99191.84;5067457;28;20215;-63
2022/01/31 03:20:18;;;;;;;10.67;1.90;;;;;;;4.98;69.89;99191.00;5066437;28;20192;-63
2022/01/31 03:22:45;;;;;;;5.03;1.80;;;;;;;5.00;70.24;99196.91;5069901;28;20250;-63
2022/01/31 03:25:12;;;;;;;4.30;2.03;;;;;;;4.89;69.94;99180.94;5069010;28;20572;-63
2022/01/31 03:27:42;;;;;;;6.33;2.13;;;;;;;4.95;70.52;99200.34;5068964;28;20218;-63
2022/01/31 03:30:12;;;;;;;8.03;2.30;;;;;;;4.96;70.55;99195.25;5068143;28;20732;-63
2022/01/31 03:32:39;;;;;;;3.40;1.87;;;;;;;4.91;70.63;99194.44;5068939;28;20203;-63
2022/01/31 03:35:08;;;;;;;7.40;1.90;;;;;;;4.87;70.80;99204.66;5068257;28;20580;-63
2022/01/31 03:37:35;;;;;;;3.93;2.33;;;;;;;4.87;71.18;99202.97;5067583;28;20592;-63
2022/01/31 03:40:02;;;;;;;7.97;2.57;;;;;;;4.87;71.16;99208.06;5068995;28;20656;-63
2022/01/31 03:42:29;;;;;;;2.70;2.50;;;;;;;4.81;71.50;99213.19;5067542;28;20206;-63
2022/01/31 03:44:57;;;;;;;6.20;1.97;;;;;;;4.81;71.86;99228.44;5068673;28;20261;-63
2022/01/31 03:47:24;;;;;;;3.80;2.33;;;;;;;4.72;72.35;99233.56;5068915;28;21002;-63
2022/01/31 03:49:52;;;;;;;7.73;1.70;;;;;;;4.59;72.76;99221.84;5068995;28;20199;-63
2022/01/31 03:52:19;;;;;;;3.07;2.30;;;;;;;4.62;73.26;99242.97;5067916;28;20200;-63
2022/01/31 03:54:46;;;;;;;5.43;2.30;;;;;;;4.56;73.66;99257.41;5067877;28;20204;-63
2022/01/31 03:57:13;;;;;;;2.87;1.87;;;;;;;4.49;74.37;99261.69;5066731;28;20226;-63
2022/01/31 03:59:40;;;;;;;2.50;2.30;;;;;;;4.43;75.07;99265.97;5068159;28;20714;-63
2022/01/31 04:02:09;;;;;;;8.27;2.40;;;;;;;4.33;75.26;99260.13;5068136;28;20734;-63
2022/01/31 04:04:36;;;;;;;11.07;2.00;;;;;;;4.16;75.46;99242.53;5067847;28;20192;-63
2022/01/31 04:07:04;;;;;;;2.07;1.87;;;;;;;4.20;76.47;99269.53;5068354;28;20200;-63
2022/01/31 04:09:31;;;;;;;5.70;2.27;;;;;;;4.14;76.78;99271.28;5068517;28;20286;-64
2022/01/31 04:11:58;;;;;;;2.93;2.13;;;;;;;4.02;77.26;99269.66;5072328;28;20282;-63
2022/01/31 04:14:27;;;;;;;3.07;2.13;;;;;;;4.01;76.94;99275.56;5071458;28;20197;-63
2022/01/31 04:16:56;;;;;;;4.30;2.37;;;;;;;3.81;77.05;99248.66;5071879;28;20269;-63
2022/01/31 04:19:25;;;;;;;7.30;2.40;;;;;;;3.89;77.39;99265.50;5071252;28;20204;-63
2022/01/31 04:21:52;;;;;;;3.00;1.93;;;;;;;3.89;77.90;99268.03;5071282;28;20228;-63
2022/01/31 04:24:23;;;;;;;8.37;3.20;;;;;;;3.92;77.71;99273.09;5071584;28;20572;-63
2022/01/31 04:26:59;;;;;;;6.33;2.80;;;;;;;3.89;77.09;99268.03;5070713;28;20199;-63
2022/01/31 04:29:30;;;;;;;7.43;2.07;;;;;;;3.78;77.42;99249.50;5071245;28;20204;-63
2022/01/31 04:31:57;;;;;;;3.80;2.63;;;;;;;3.89;76.90;99255.38;5072135;28;20242;-63
2022/01/31 04:34:26;;;;;;;4.47;2.60;;;;;;;3.79;76.26;99240.22;5071351;28;20205;-63
2022/01/31 04:36:53;;;;;;;2.63;2.43;;;;;;;3.94;76.79;99271.38;5070213;28;20216;-63
2022/01/31 04:39:20;;;;;;;2.67;2.43;;;;;;;3.94;76.94;99273.91;5070951;28;20200;-63
2022/01/31 04:41:49;;;;;;;7.97;2.83;;;;;;;3.96;76.82;99274.78;5069799;28;20657;-63
2022/01/31 04:44:16;;;;;;;2.17;1.97;;;;;;;3.95;77.13;99275.63;5071121;28;20228;-63
2022/01/31 04:46:45;;;;;;;8.00;2.60;;;;;;;3.96;76.55;99279.00;5071249;28;20723;-63
2022/01/31 04:49:12;;;;;;;4.90;1.90;;;;;;;4.05;76.36;99289.94;5070846;28;22152;-63
2022/01/31 04:51:41;;;;;;;5.37;3.37;;;;;;;4.05;76.49;99292.47;5069345;28;20385;-63
2022/01/31 04:54:08;;;;;;;5.60;2.73;;;;;;;4.04;76.79;99283.16;5069724;28;20282;-63
2022/01/31 04:56:36;;;;;;;4.63;1.93;;;;;;;4.03;76.83;99295.88;5070895;28;20299;-63
2022/01/31 04:59:03;;;;;;;2.83;2.63;;;;;;;4.04;76.89;99308.53;5070138;28;20204;-63
2022/01/31 05:01:30;;;;;;;3.87;1.90;;;;;;;3.98;77.05;99308.56;5069450;28;20624;-63
2022/01/31 05:03:57;;;;;;;3.57;1.90;;;;;;;3.90;77.50;99325.53;5069224;28;20192;-63
2022/01/31 05:06:31;;;;;;;3.17;2.10;;;;;;;3.87;77.49;99325.53;5068607;28;20569;-63
2022/01/31 05:09:00;;;;;;;2.00;1.90;;;;;;;3.92;77.76;99328.88;5068749;28;20203;-63
2022/01/31 05:11:27;;;;;;;6.40;2.23;;;;;;;3.99;77.22;99335.63;5062756;28;20995;-63
2022/01/31 05:13:54;;;;;;;1.60;1.50;;;;;;;4.11;76.16;99339.78;5069623;28;20215;-64
2022/01/31 05:16:22;;;;;;;6.63;2.87;;;;;;;4.19;75.41;99346.50;5068750;28;20207;-63
2022/01/31 05:18:49;;;;;;;3.03;2.70;;;;;;;4.37;73.69;99357.38;5070778;28;20219;-63
2022/01/31 05:21:16;;;;;;;8.83;3.30;;;;;;;4.50;72.33;99347.16;5069278;28;20294;-63
2022/01/31 05:23:44;;;;;;;8.67;2.43;;;;;;;4.69;70.50;99342.78;5068962;28;20283;-63
2022/01/31 05:26:12;;;;;;;6.47;3.27;;;;;;;4.82;69.48;99346.91;5068232;28;20211;-63
2022/01/31 05:28:39;;;;;;;14.97;2.70;;;;;;;4.87;69.38;99357.91;5068930;28;20704;-63
2022/01/31 05:31:07;;;;;;;11.23;2.20;;;;;;;4.84;69.54;99352.84;5065863;28;20196;-63
2022/01/31 05:33:34;;;;;;;2.77;1.87;;;;;;;4.88;67.70;99331.63;5067606;28;20230;-63
2022/01/31 05:36:01;;;;;;;2.93;1.80;;;;;;;5.01;66.67;99338.28;5067576;28;20196;-63
2022/01/31 05:38:28;;;;;;;4.50;1.87;;;;;;;4.91;67.17;99321.44;5061197;28;20307;-63
2022/01/31 05:40:55;;;;;;;4.43;2.30;;;;;;;4.93;67.34;99327.38;5063598;28;20695;-63
2022/01/31 05:43:23;;;;;;;3.83;2.37;;;;;;;4.89;67.71;99333.31;5067328;28;20219;-63
2022/01/31 05:45:50;;;;;;;3.37;1.77;;;;;;;4.85;68.43;99324.03;5069477;28;20287;-63
2022/01/31 05:48:18;;;;;;;8.93;2.43;;;;;;;4.76;69.39;99326.66;5069384;28;20236;-63
2022/01/31 05:50:47;;;;;;;5.03;2.40;;;;;;;4.63;69.76;99325.91;5069719;28;20603;-63
2022/01/31 05:53:14;;;;;;;5.27;2.63;;;;;;;4.59;69.76;99331.00;5069188;28;20212;-63
2022/01/31 05:55:41;;;;;;;3.43;2.03;;;;;;;4.54;69.57;99332.75;5070199;28;20204;-63
2022/01/31 05:58:09;;;;;;;8.93;3.10;;;;;;;4.50;69.39;99323.47;5070401;28;20216;-63
2022/01/31 06:00:37;;;;;;;7.73;2.37;;;;;;;4.53;69.64;99329.38;5067267;28;20211;-63
2022/01/31 06:03:05;;;;;;;2.63;2.10;;;;;;;4.57;68.90;99323.44;5068392;28;20196;-63
2022/01/31 06:05:31;;;;;;;3.40;2.23;;;;;;;4.57;68.77;99330.19;5068479;28;20212;-63
2022/01/31 06:07:58;;;;;;;2.67;1.97;;;;;;;4.56;69.12;99338.66;5069548;28;20545;-63
2022/01/31 06:10:25;;;;;;;3.93;2.03;;;;;;;4.58;69.73;99347.13;5068840;28;20273;-64
2022/01/31 06:12:53;;;;;;;5.03;2.60;;;;;;;4.58;69.93;99349.66;5069673;28;20212;-63
2022/01/31 06:15:20;;;;;;;7.30;2.53;;;;;;;4.59;69.80;99354.72;5067743;28;20204;-63
2022/01/31 06:17:48;;;;;;;2.23;2.03;;;;;;;4.65;69.05;99374.16;5070980;28;20302;-63
2022/01/31 06:20:15;;;;;;;2.73;2.00;;;;;;;4.69;68.85;99380.88;5069208;28;20589;-63
2022/01/31 06:22:47;;;;;;;2.30;2.13;;;;;;;4.73;68.75;99388.47;5070465;28;20621;-63
2022/01/31 06:25:14;;;;;;;5.77;2.33;;;;;;;4.79;68.53;99400.28;5069028;28;20196;-63
2022/01/31 06:27:41;;;;;;;6.70;2.80;;;;;;;4.84;68.58;99403.63;5069082;28;20196;-63
2022/01/31 06:30:09;;;;;;;3.30;2.40;;;;;;;4.91;68.39;99409.53;5068146;28;20196;-63
2022/01/31 06:32:36;;;;;;;2.60;1.83;;;;;;;4.90;68.64;99408.66;5068126;28;20207;-63
2022/01/31 06:35:05;;;;;;;8.70;2.30;;;;;;;4.96;68.42;99405.22;5068258;28;20286;-63
2022/01/31 06:37:32;;;;;;;10.17;2.67;;;;;;;4.97;68.48;99397.63;5070349;28;20592;-63
2022/01/31 06:39:59;;;;;;;3.87;2.50;;;;;;;4.99;69.21;99385.72;5069726;28;20206;-63
2022/01/31 06:42:26;;;;;;;4.43;2.40;;;;;;;4.98;69.82;99393.34;5068038;28;20203;-63
2022/01/31 06:44:53;;;;;;;2.33;2.10;;;;;;;4.94;69.49;99384.09;5069317;28;20220;-63
2022/01/31 06:47:20;;;;;;;2.13;2.03;;;;;;;4.85;69.29;99367.22;5067660;28;20579;-63
2022/01/31 06:49:47;;;;;;;4.20;1.60;;;;;;;5.04;67.85;99383.97;5067816;28;20200;-63
2022/01/31 06:52:15;;;;;;;4.77;2.83;;;;;;;5.06;67.10;99377.22;5068364;28;20207;-63
2022/01/31 06:54:43;;;;;;;3.50;2.27;;;;;;;5.10;67.81;99371.25;5067887;28;20227;-63
2022/01/31 06:57:11;;;;;;;6.43;2.40;;;;;;;4.98;67.47;99353.56;5065819;28;20200;-63
2022/01/31 06:59:37;;;;;;;4.67;1.70;;;;;;;5.20;67.36;99364.41;5063972;28;20194;-65
2022/01/31 07:02:05;;;;;;;2.27;2.00;;;;;;;5.15;67.54;99361.88;5066204;28;20231;-63
2022/01/31 07:04:32;;;;;;;20.93;9.97;;;;;;;5.26;68.00;99377.88;5064955;28;20207;-63
2022/01/31 07:06:59;;;;;;;4.83;4.10;;;;;;;5.31;66.26;99372.75;5065206;28;20196;-65
2022/01/31 07:09:28;;;;;;;7.47;4.30;;;;;;;5.37;65.45;99380.31;5066104;28;20200;-63
2022/01/31 07:11:58;;;;;;;3.33;2.70;;;;;;;5.44;65.66;99381.09;5065281;28;21173;-63
2022/01/31 07:14:31;;;;;;;6.90;3.90;;;;;;;5.50;66.07;99388.66;5065659;28;20712;-64
2022/01/31 07:17:00;;;;;;;3.10;2.90;;;;;;;5.53;66.02;99388.63;5066502;28;20219;-64
2022/01/31 07:19:30;;;;;;;6.50;2.63;;;;;;;5.57;65.69;99385.19;5063378;28;20778;-63
2022/01/31 07:21:57;;;;;;;6.70;3.20;;;;;;;5.60;66.25;99375.00;5065745;28;20287;-64
2022/01/31 07:24:30;;;;;;;4.77;2.93;;;;;;;5.63;65.36;99370.72;5066446;28;20292;-66
2022/01/31 07:26:58;;;;;;;8.50;5.57;;;;;;;5.71;65.15;99356.22;5068006;28;20234;-66
2022/01/31 07:29:25;;;;;;;4.23;3.47;;;;;;;5.77;64.46;99355.31;5067256;28;20295;-66
2022/01/31 07:31:52;;;;;;;5.93;2.67;;;;;;;5.87;63.34;99348.44;5067225;28;20215;-66
2022/01/31 07:34:20;;;;;;;4.13;2.80;;;;;;;5.83;62.86;99342.50;5066300;28;20212;-66
2022/01/31 07:36:48;;;;;;;7.30;2.23;;;;;;;5.90;62.36;99338.22;5067710;28;20723;-66
2022/01/31 07:39:15;;;;;;;5.37;2.30;;;;;;;5.95;63.16;99334.75;5067562;28;20600;-66
2022/01/31 07:41:43;;;;;;;13.70;2.83;;;;;;;5.87;62.65;99306.03;5067223;28;20208;-67
2022/01/31 07:44:13;;;;;;;7.17;3.57;;;;;;;6.07;62.70;99319.34;5067912;28;20326;-67
2022/01/31 07:46:40;;;;;;;6.77;2.13;;;;;;;6.09;61.70;99322.72;5071318;28;20704;-67
2022/01/31 07:49:08;;;;;;;3.20;2.37;;;;;;;6.08;62.14;99317.63;5071942;28;20200;-67
2022/01/31 07:51:38;;;;;;;10.77;2.70;;;;;;;6.21;60.96;99317.44;5072569;28;20664;-67
2022/01/31 07:54:05;;;;;;;3.80;2.30;;;;;;;6.36;59.65;99323.19;5071823;28;20203;-67
2022/01/31 07:56:32;;;;;;;1.77;1.53;;;;;;;6.28;58.91;99296.13;5071442;28;20569;-67
2022/01/31 07:58:59;;;;;;;4.90;2.37;;;;;;;6.54;58.70;99305.09;5071810;28;20222;-67
2022/01/31 08:01:27;;;;;;;2.33;1.93;;;;;;;6.65;58.94;99306.63;5072213;28;20216;-67
2022/01/31 08:03:54;;;;;;;26.57;3.03;;;;;;;6.72;55.98;99297.16;5072483;28;20254;-66
2022/01/31 08:06:21;;;;;;;8.60;2.60;;;;;;;6.81;56.35;99304.66;5070193;28;20209;-66
2022/01/31 08:08:50;;;;;;;7.63;2.57;;;;;;;6.94;56.67;99298.50;5069277;28;20668;-67
2022/01/31 08:11:18;;;;;;;7.83;2.10;;;;;;;7.06;56.15;99299.97;5069519;28;20204;-66
2022/01/31 08:13:45;;;;;;;8.27;1.93;;;;;;;7.19;55.19;99297.19;5071784;28;20718;-68
2022/01/31 08:16:13;;;;;;;6.77;2.03;;;;;;;7.29;55.62;99296.16;5072312;28;20612;-66
2022/01/31 08:18:45;;;;;;;8.40;2.23;;;;;;;7.43;55.76;99302.69;5071270;28;20604;-67
2022/01/31 08:21:13;;;;;;;9.20;2.33;;;;;;;7.46;53.64;99307.75;5071283;28;20333;-66
2022/01/31 08:23:41;;;;;;;5.27;1.77;;;;;;;7.46;53.10;99302.63;5071943;28;20210;-65
2022/01/31 08:26:12;;;;;;;16.60;2.57;;;;;;;7.55;54.13;99308.41;5070543;28;20196;-67
2022/01/31 08:28:42;;;;;;;3.77;1.67;;;;;;;7.69;53.73;99310.69;5070344;28;20196;-66
2022/01/31 08:31:15;;;;;;;11.45;2.20;;;;;;;7.77;53.85;99299.44;5069109;28;20437;-66
2022/01/31 08:33:49;;;;;;;4.20;2.00;;;;;;;7.94;52.58;99311.84;5072117;28;20196;-64
2022/01/31 08:36:17;;;;;;;7.07;1.73;;;;;;;7.96;51.96;99305.00;5073344;28;20206;-65
2022/01/31 08:38:46;;;;;;;7.30;2.42;;;;;;;7.93;50.71;99294.84;5072805;28;20450;-71
2022/01/31 08:41:14;;;;;;;6.78;2.10;;;;;;;8.06;51.34;99306.50;5064039;28;20433;-74
2022/01/31 08:43:42;;;;;;;3.00;1.90;;;;;;;8.21;51.26;99308.69;5068844;28;20644;-74
2022/01/31 08:46:11;;;;;;;2.20;1.40;;;;;;;8.21;49.57;99318.91;5068420;28;20222;-74
2022/01/31 08:48:39;;;;;;;2.37;1.90;;;;;;;8.27;49.34;99323.88;5066872;28;20200;-74
2022/01/31 08:51:09;;;;;;;2.30;1.60;;;;;;;8.34;49.15;99329.72;5068440;28;20287;-75
2022/01/31 08:53:37;;;;;;;1.80;1.70;;;;;;;8.43;50.86;99332.09;5069212;28;20274;-69
2022/01/31 08:56:07;;;;;;;4.60;1.67;;;;;;;8.52;50.78;99325.94;5071137;28;20287;-75
2022/01/31 08:58:41;;;;;;;4.70;2.00;;;;;;;8.58;48.80;99324.06;5069988;28;20220;-74
2022/01/31 09:01:09;;;;;;;1.93;1.83;;;;;;;8.58;48.21;99313.00;5069779;28;20208;-74
2022/01/31 09:03:55;;;;;;;3.70;2.00;;;;;;;8.46;48.27;99295.41;5070388;28;20231;-73
2022/01/31 09:06:26;;;;;;;5.43;1.90;;;;;;;8.66;48.93;99308.56;5069578;28;20239;-73
2022/01/31 09:08:53;;;;;;;1.67;1.67;;;;;;;8.76;48.84;99299.78;5067268;28;20196;-74
2022/01/31 09:11:21;;;;;;;2.33;1.90;;;;;;;8.88;48.69;99294.38;5068756;28;20200;-75
2022/01/31 09:13:48;;;;;;;2.10;1.63;;;;;;;9.00;48.56;99278.72;5070903;28;20920;-74
2022/01/31 09:16:15;;;;;;;1.73;1.63;;;;;;;8.95;48.32;99271.16;5070110;28;20208;-73
2022/01/31 09:18:42;;;;;;;4.33;1.97;;;;;;;9.15;47.75;99277.47;5069294;28;20215;-76
2022/01/31 09:21:10;;;;;;;3.90;1.50;;;;;;;9.20;47.49;99273.94;5062230;28;20824;-76
2022/01/31 09:23:38;;;;;;;3.07;1.67;;;;;;;9.31;47.25;99276.19;5069724;28;20251;-75
2022/01/31 09:26:05;;;;;;;3.63;1.70;;;;;;;9.29;45.45;99255.78;5065408;28;20204;-76
2022/01/31 09:28:32;;;;;;;6.00;1.70;;;;;;;9.44;46.00;99260.47;5068709;28;20230;-72
2022/01/31 09:30:59;;;;;;;4.73;1.90;;;;;;;9.45;46.64;99261.31;5064903;28;20201;-76
2022/01/31 09:33:27;;;;;;;2.43;1.83;;;;;;;9.49;45.71;99248.41;5070908;28;20244;-75
2022/01/31 09:35:56;;;;;;;4.90;2.07;;;;;;;9.69;46.93;99250.41;5071457;28;20661;-73
2022/01/31 09:38:24;;;;;;;2.17;2.00;;;;;;;9.68;45.26;99253.00;5070851;28;20212;-75
2022/01/31 09:40:54;;;;;;;1.93;1.60;;;;;;;9.70;44.49;99230.72;5069945;28;20241;-74
2022/01/31 09:43:53;;;;;;;5.33;1.83;;;;;;;9.72;43.84;99229.00;5068739;28;20317;-74
2022/01/31 09:49:02;;;;;;;4.53;1.90;;;;;;;9.77;45.49;99209.19;5059036;28;20290;-75
2022/01/31 09:51:29;;;;;;;2.73;1.70;;;;;;;9.76;45.38;99199.84;5069395;28;20294;-76
2022/01/31 09:53:58;;;;;;;3.30;1.50;;;;;;;9.91;45.64;99191.72;5068782;28;20208;-77
2022/01/31 09:56:30;;;;;;;5.00;1.67;;;;;;;9.86;44.84;99170.50;5069615;28;20629;-75
2022/01/31 09:58:58;;;;;;;1.90;1.73;;;;;;;9.98;44.89;99180.41;5070289;28;20258;-77
2022/01/31 10:01:28;;;;;;;2.97;1.67;;;;;;;10.04;44.97;99169.97;5069473;28;20204;-76
2022/01/31 10:03:57;;;;;;;2.37;2.17;;;;;;;10.19;44.13;99174.63;5068653;28;20219;-77
2022/01/31 10:06:25;;;;;;;4.60;1.53;;;;;;;10.23;43.48;99177.91;5067639;28;20208;-76
2022/01/31 10:09:06;;;;;;;3.00;1.73;;;;;;;10.24;44.37;99166.78;5062641;28;20300;-76
2022/01/31 10:11:42;;;;;;;9.13;2.37;;;;;;;10.32;43.57;99157.97;5065067;28;20294;-76
2022/01/31 10:17:04;;;;;;;5.53;2.47;;;;;;;10.52;43.29;99147.03;5068284;28;20269;-78
2022/01/31 10:19:39;;;;;;;3.17;1.70;;;;;;;10.57;42.86;99160.53;5068783;28;20260;-77
2022/01/31 10:22:08;;;;;;;4.37;1.70;;;;;;;10.53;43.18;99149.53;5064684;28;20199;-75
2022/01/31 10:24:37;;;;;;;2.57;2.37;;;;;;;10.62;43.21;99148.41;5064763;28;20205;-77
2022/01/31 10:27:10;;;;;;;4.83;2.97;;;;;;;10.59;41.58;99129.72;5068448;28;20577;-76
2022/01/31 10:29:38;;;;;;;2.80;2.20;;;;;;;10.58;41.77;99125.50;5065495;28;20208;-78
2022/01/31 10:32:07;;;;;;;3.40;2.00;;;;;;;10.59;41.65;99132.28;5067149;28;20193;-78
2022/01/31 10:34:36;;;;;;;4.30;1.90;;;;;;;10.67;41.50;99125.16;5068159;28;20626;-78
2022/01/31 10:37:05;;;;;;;9.27;2.73;;;;;;;10.79;43.24;99119.63;5065925;28;20277;-77
2022/01/31 10:45:37;;;;;;;1.50;1.40;;;;;;;10.80;41.71;99105.91;5067133;28;20377;-78
2022/01/31 10:51:31;;;;;;;6.17;3.13;;;;;;;10.90;42.24;99079.03;5067090;28;20215;-78
2022/01/31 10:54:04;;;;;;;5.43;2.80;;;;;;;10.97;41.11;99063.38;5067304;28;20203;-78
2022/01/31 10:56:41;;;;;;;3.73;2.70;;;;;;;10.95;41.35;99059.19;5069937;28;20200;-76
2022/01/31 10:59:12;;;;;;;2.43;2.10;;;;;;;10.99;40.73;99029.97;5065082;28;20601;-77
2022/01/31 11:01:40;;;;;;;7.60;3.60;;;;;;;11.04;41.08;99058.84;5068259;28;20208;-77
2022/01/31 11:04:10;;;;;;;2.73;2.17;;;;;;;10.98;41.73;99049.66;5068776;28;20283;-78
2022/01/31 11:06:39;;;;;;;5.83;2.13;;;;;;;10.96;42.44;99032.63;5068605;28;20204;-77
2022/01/31 11:09:09;;;;;;;3.77;2.20;;;;;;;11.04;42.43;99048.59;5069086;28;20200;-78
2022/01/31 11:11:37;;;;;;;2.70;1.90;;;;;;;11.05;41.71;99034.84;5069504;28;20575;-75
2022/01/31 11:14:04;;;;;;;2.40;2.17;;;;;;;11.06;41.83;99026.28;5069781;28;20283;-78
2022/01/31 11:16:33;;;;;;;4.17;2.00;;;;;;;11.11;41.51;99018.41;5069953;28;20287;-74
2022/01/31 11:19:06;;;;;;;9.07;2.17;;;;;;;11.07;42.58;99010.84;5072346;28;20230;-76
2022/01/31 11:21:34;;;;;;;5.23;2.07;;;;;;;11.06;41.38;99005.75;5069096;28;20204;-75
2022/01/31 11:24:03;;;;;;;7.60;2.57;;;;;;;11.17;42.14;98997.66;5070487;28;20203;-74
2022/01/31 11:26:41;;;;;;;4.63;2.70;;;;;;;11.18;41.44;98978.81;5069556;28;20223;-75
2022/01/31 11:29:09;;;;;;;2.90;2.00;;;;;;;11.18;39.33;98989.88;5071638;28;20192;-74
2022/01/31 11:31:39;;;;;;;4.60;2.13;;;;;;;11.16;40.71;98971.16;5071501;28;20691;-74
2022/01/31 11:34:08;;;;;;;2.93;1.83;;;;;;;11.13;39.06;98971.28;5070707;28;20286;-75
2022/01/31 11:36:36;;;;;;;3.80;2.40;;;;;;;11.25;40.66;98969.94;5068649;28;20203;-75
2022/01/31 11:39:06;;;;;;;2.53;1.53;;;;;;;11.14;39.10;98967.84;5071675;28;20216;-73
2022/01/31 11:41:34;;;;;;;2.50;1.63;;;;;;;11.20;38.97;98957.31;5071247;28;20287;-74
2022/01/31 11:44:09;;;;;;;1.93;1.40;;;;;;;11.18;37.92;98969.34;5070078;28;20315;-74
2022/01/31 11:46:39;;;;;;;2.40;2.20;;;;;;;11.07;38.43;98951.00;5071465;28;20208;-74
2022/01/31 11:49:10;;;;;;;4.10;1.60;;;;;;;11.16;37.56;98954.94;5070555;28;20291;-74
2022/01/31 11:51:50;;;;;;;2.53;1.67;;;;;;;11.11;37.02;98947.44;5070957;28;20211;-74
2022/01/31 11:54:24;;;;;;;6.30;1.70;;;;;;;11.12;37.86;98937.97;5070492;28;20731;-75
2022/01/31 11:56:54;;;;;;;2.10;2.00;;;;;;;11.19;37.28;98936.84;5070270;28;20204;-74
2022/01/31 11:59:22;;;;;;;3.20;2.17;;;;;;;11.20;37.89;98947.06;5070535;28;20227;-71
2022/01/31 12:01:52;;;;;;;6.37;2.23;;;;;;;11.28;36.93;98928.78;5071374;28;20567;-74